createdAt,value
2019-05-21T00:02:49.527Z,29.67
2019-05-21T00:07:56.031Z,31.57
2019-05-21T00:13:02.343Z,31.87
2019-05-21T00:18:08.578Z,32.17
2019-05-21T00:23:14.997Z,30.55
2019-05-21T00:28:56.534Z,33.30
2019-05-21T00:34:43.963Z,31.90
2019-05-21T00:40:22.761Z,33.27
2019-05-21T00:45:29.074Z,32.60
2019-05-21T00:50:35.324Z,33.85
2019-05-21T00:55:41.843Z,31.83
2019-05-21T01:00:48.247Z,31.90
2019-05-21T01:05:56.431Z,33.23
2019-05-21T01:11:02.896Z,33.42
2019-05-21T01:16:09.550Z,32.07
2019-05-21T01:21:15.947Z,31.97
2019-05-21T01:26:24.336Z,33.02
2019-05-21T01:31:30.555Z,32.93
2019-05-21T01:36:36.976Z,32.20
2019-05-21T01:41:43.401Z,32.00
2019-05-21T01:46:49.961Z,33.58
2019-05-21T01:51:56.641Z,31.57
2019-05-21T01:57:04.298Z,32.00
2019-05-21T02:02:10.677Z,30.37
2019-05-21T02:07:17.172Z,30.15
2019-05-21T02:12:23.525Z,29.70
2019-05-21T02:17:29.838Z,27.93
2019-05-21T02:22:36.246Z,29.20
2019-05-21T02:27:42.749Z,29.45
2019-05-21T02:32:51.000Z,25.37
2019-05-21T02:37:57.536Z,28.40
2019-05-21T02:43:05.692Z,27.35
2019-05-21T02:48:12.043Z,29.03
2019-05-21T02:53:18.459Z,29.00
2019-05-21T02:58:24.781Z,28.27
2019-05-21T03:03:32.157Z,28.37
2019-05-21T03:08:38.692Z,26.40
2019-05-21T03:13:46.856Z,30.13
2019-05-21T03:18:53.109Z,30.83
2019-05-21T03:24:11.517Z,29.87
2019-05-21T03:29:18.449Z,30.75
2019-05-21T03:34:24.797Z,29.23
2019-05-21T03:39:31.139Z,29.35
2019-05-21T03:44:37.455Z,28.75
2019-05-21T03:49:43.708Z,30.40
2019-05-21T03:54:50.286Z,28.90
2019-05-21T03:59:58.009Z,30.90
2019-05-21T04:05:05.007Z,30.43
2019-05-21T04:10:16.906Z,30.17
2019-05-21T04:15:26.673Z,30.87
2019-05-21T04:20:34.691Z,29.70
2019-05-21T04:25:52.652Z,29.13
2019-05-21T04:30:59.150Z,30.40
2019-05-21T04:36:06.826Z,27.65
2019-05-21T04:41:13.216Z,28.80
2019-05-21T04:46:19.846Z,28.93
2019-05-21T04:56:40.179Z,27.03
2019-05-21T05:01:47.865Z,26.90
2019-05-21T05:06:54.311Z,26.93
2019-05-21T05:12:00.600Z,28.53
2019-05-21T05:17:07.083Z,27.30
2019-05-21T05:22:13.870Z,29.20
2019-05-21T05:27:20.348Z,29.07
2019-05-21T05:32:26.838Z,26.90
2019-05-21T05:37:43.149Z,24.03
2019-05-21T05:42:41.750Z,24.97
2019-05-21T05:47:48.185Z,23.93
2019-05-21T05:52:54.589Z,24.67
2019-05-21T05:58:01.217Z,24.40
2019-05-21T06:03:08.525Z,24.63
2019-05-21T06:08:14.826Z,24.83
2019-05-21T06:13:21.544Z,25.92
2019-05-21T06:18:27.926Z,26.47
2019-05-21T06:23:34.440Z,25.33
2019-05-21T06:28:40.847Z,26.73
2019-05-21T06:33:47.203Z,25.63
2019-05-21T06:38:53.446Z,25.43
2019-05-21T06:43:59.642Z,24.13
2019-05-21T06:49:05.850Z,25.80
2019-05-21T06:54:11.994Z,22.93
2019-05-21T06:59:18.275Z,24.43
2019-05-21T07:04:25.272Z,24.30
2019-05-21T07:09:31.500Z,24.92
2019-05-21T07:14:37.754Z,24.75
2019-05-21T07:19:44.029Z,24.97
2019-05-21T07:24:50.288Z,22.27
2019-05-21T07:29:56.528Z,24.43
2019-05-21T07:35:02.739Z,23.37
2019-05-21T07:40:28.012Z,23.27
2019-05-21T07:45:34.276Z,23.87
2019-05-21T07:50:40.487Z,23.77
2019-05-21T07:55:46.714Z,21.57
2019-05-21T08:00:53.099Z,21.83
2019-05-21T08:05:59.528Z,22.13
2019-05-21T08:11:05.985Z,22.33
2019-05-21T08:16:12.296Z,22.87
2019-05-21T08:21:18.601Z,22.45
2019-05-21T08:26:25.004Z,21.53
2019-05-21T08:31:31.262Z,24.30
2019-05-21T08:36:37.689Z,24.23
2019-05-21T08:41:43.963Z,23.93
2019-05-21T08:46:50.244Z,25.03
2019-05-21T08:51:56.460Z,24.93
2019-05-21T08:57:02.785Z,25.50
2019-05-21T09:02:09.140Z,24.23
2019-05-21T09:07:15.677Z,24.00
2019-05-21T09:12:22.014Z,22.70
2019-05-21T09:17:28.268Z,21.63
2019-05-21T09:22:34.625Z,20.83
2019-05-21T09:27:41.179Z,22.70
2019-05-21T09:32:47.649Z,24.63
2019-05-21T09:37:53.808Z,23.75
2019-05-21T09:43:00.220Z,22.57
2019-05-21T09:48:06.588Z,22.82
2019-05-21T09:53:12.878Z,24.83
2019-05-21T09:58:27.146Z,24.20
2019-05-21T10:03:35.304Z,23.63
2019-05-21T10:08:41.515Z,24.20
2019-05-21T10:13:47.773Z,23.87
2019-05-21T10:18:53.940Z,24.40
2019-05-21T10:24:00.093Z,24.00
2019-05-21T10:29:06.316Z,24.40
2019-05-21T10:34:13.469Z,24.63
2019-05-21T10:39:19.857Z,24.30
2019-05-21T10:44:25.941Z,23.03
2019-05-21T10:49:32.168Z,22.80
2019-05-21T10:54:38.564Z,23.38
2019-05-21T10:59:46.002Z,23.57
2019-05-21T11:05:02.085Z,22.40
2019-05-21T11:10:08.728Z,24.20
2019-05-21T11:15:15.925Z,23.47
2019-05-21T11:20:23.458Z,24.50
2019-05-21T11:25:29.783Z,23.40
2019-05-21T11:30:35.971Z,22.23
2019-05-21T11:35:42.401Z,21.93
2019-05-21T11:40:50.971Z,21.23
2019-05-21T11:45:56.614Z,20.25
2019-05-21T11:51:02.866Z,21.30
2019-05-21T11:56:08.985Z,20.80
2019-05-21T12:01:15.408Z,20.77
2019-05-21T12:06:21.647Z,19.77
2019-05-21T12:11:27.897Z,20.17
2019-05-21T12:16:34.085Z,20.40
2019-05-21T12:21:40.294Z,18.40
2019-05-21T12:26:46.572Z,18.10
2019-05-21T12:31:52.760Z,18.37
2019-05-21T12:36:58.998Z,17.77
2019-05-21T12:42:05.428Z,20.30
2019-05-21T12:47:11.906Z,19.43
2019-05-21T12:52:18.363Z,19.12
2019-05-21T12:57:24.693Z,16.80
2019-05-21T13:02:31.251Z,17.47
2019-05-21T13:07:37.656Z,17.45
2019-05-21T13:12:43.914Z,16.90
2019-05-21T13:17:50.202Z,17.63
2019-05-21T13:22:56.476Z,17.12
2019-05-21T13:28:02.761Z,16.17
2019-05-21T13:33:09.176Z,16.83
2019-05-21T13:38:16.568Z,16.45
2019-05-21T13:43:23.031Z,15.17
2019-05-21T13:48:29.512Z,15.10
2019-05-21T13:53:35.829Z,14.37
2019-05-21T13:58:42.333Z,14.27
2019-05-21T14:03:49.181Z,13.97
2019-05-21T14:08:55.456Z,12.53
2019-05-21T14:14:01.703Z,12.90
2019-05-21T14:19:08.168Z,11.97
2019-05-21T14:24:14.405Z,13.40
2019-05-21T14:29:20.618Z,14.23
2019-05-21T14:34:26.839Z,14.87
2019-05-21T14:39:44.475Z,14.67
2019-05-21T14:44:51.670Z,15.60
2019-05-21T14:49:57.921Z,14.57
2019-05-21T14:55:04.694Z,13.90
2019-05-21T15:00:22.368Z,14.98
2019-05-21T15:05:28.699Z,14.40
2019-05-21T15:10:48.122Z,13.37
2019-05-21T15:15:42.823Z,14.20
2019-05-21T15:20:54.161Z,13.10
2019-05-21T15:26:00.554Z,12.28
2019-05-21T15:31:06.884Z,15.97
2019-05-21T15:36:13.183Z,13.07
2019-05-21T15:41:19.959Z,13.85
2019-05-21T15:46:26.400Z,14.27
2019-05-21T15:51:32.718Z,13.90
2019-05-21T15:56:39.077Z,13.10
2019-05-21T16:01:45.342Z,13.40
2019-05-21T16:06:51.613Z,13.80
2019-05-21T16:11:58.177Z,14.43
2019-05-21T16:17:05.234Z,14.10
2019-05-21T16:22:12.766Z,12.90
2019-05-21T16:27:19.103Z,12.80
2019-05-21T16:32:25.532Z,11.40
2019-05-21T16:37:31.912Z,12.40
2019-05-21T16:42:38.143Z,12.47
2019-05-21T16:47:46.707Z,11.73
2019-05-21T16:52:52.547Z,11.43
2019-05-21T16:57:58.953Z,13.87
2019-05-21T17:03:05.626Z,11.53
2019-05-21T17:08:11.970Z,11.57
2019-05-21T17:13:18.312Z,12.33
2019-05-21T17:18:24.568Z,11.93
2019-05-21T17:23:30.915Z,11.00
2019-05-21T17:28:37.130Z,11.33
2019-05-21T17:33:43.354Z,12.43
2019-05-21T17:38:49.581Z,12.13
2019-05-21T17:43:56.009Z,11.83
2019-05-21T17:49:02.247Z,12.33
2019-05-21T17:54:08.869Z,12.13
2019-05-21T17:59:19.808Z,11.57
2019-05-21T18:04:26.541Z,11.07
2019-05-21T18:09:35.989Z,11.20
2019-05-21T18:14:42.355Z,11.37
2019-05-21T18:19:50.220Z,11.93
2019-05-21T18:24:56.648Z,11.07
2019-05-21T18:30:03.975Z,11.77
2019-05-21T18:35:12.255Z,12.07
2019-05-21T18:40:19.343Z,11.40
2019-05-21T18:45:25.744Z,12.40
2019-05-21T18:50:36.383Z,12.83
2019-05-21T18:55:40.805Z,13.50
2019-05-21T19:00:49.230Z,14.45
2019-05-21T19:05:55.681Z,14.23
2019-05-21T19:11:02.367Z,13.33
2019-05-21T19:16:08.820Z,12.67
2019-05-21T19:21:19.682Z,11.90
2019-05-21T19:26:26.119Z,10.87
2019-05-21T19:31:32.611Z,11.73
2019-05-21T19:36:38.808Z,12.73
2019-05-21T19:41:44.912Z,13.40
2019-05-21T19:46:51.313Z,15.30
2019-05-21T19:51:57.508Z,12.93
2019-05-21T19:57:04.227Z,12.10
2019-05-21T20:02:10.519Z,12.82
2019-05-21T20:07:17.590Z,12.80
2019-05-21T20:12:26.325Z,12.70
2019-05-21T20:17:32.725Z,12.40
2019-05-21T20:22:39.816Z,12.53
2019-05-21T20:27:46.412Z,11.90
2019-05-21T20:32:53.427Z,11.90
2019-05-21T20:38:00.232Z,12.40
2019-05-21T20:43:06.739Z,12.27
2019-05-21T20:48:16.565Z,12.33
2019-05-21T20:53:22.747Z,12.43
2019-05-21T20:58:29.971Z,12.30
2019-05-21T21:03:36.881Z,12.77
2019-05-21T21:08:44.252Z,12.00
2019-05-21T21:13:51.862Z,12.90
2019-05-21T21:18:59.485Z,14.17
2019-05-21T21:24:07.913Z,16.12
2019-05-21T21:29:14.220Z,16.33
2019-05-21T21:34:20.581Z,17.73
2019-05-21T21:39:27.826Z,18.93
2019-05-21T21:44:34.560Z,18.77
2019-05-21T21:49:42.796Z,18.63
2019-05-21T21:54:49.014Z,19.10
2019-05-21T21:59:55.810Z,17.83
2019-05-21T22:05:03.191Z,18.97
2019-05-21T22:10:11.121Z,19.07
2019-05-21T22:15:18.215Z,18.82
2019-05-21T22:20:24.865Z,18.53
2019-05-21T22:25:31.133Z,17.10
2019-05-21T22:30:37.916Z,18.75
2019-05-21T22:35:44.204Z,21.03
2019-05-21T22:40:50.439Z,20.63
2019-05-21T22:45:57.142Z,21.40
2019-05-21T22:51:03.690Z,23.60
2019-05-21T22:56:10.042Z,21.68
2019-05-21T23:01:17.364Z,21.75
2019-05-21T23:06:24.076Z,22.17
2019-05-21T23:11:31.517Z,23.27
2019-05-21T23:16:38.021Z,21.47
2019-05-21T23:21:53.522Z,22.50
2019-05-21T23:27:00.307Z,22.75
2019-05-21T23:32:08.098Z,23.07
2019-05-21T23:37:21.232Z,22.63
2019-05-21T23:42:29.874Z,23.37
2019-05-21T23:47:35.907Z,23.50
2019-05-21T23:52:42.160Z,22.00
2019-05-21T23:57:48.556Z,22.70
